createdAt,value
2019-04-01T00:00:50.654Z,52.71
2019-04-01T00:03:21.140Z,52.67
2019-04-01T00:05:51.598Z,52.50
2019-04-01T00:08:22.050Z,52.37
2019-04-01T00:10:52.517Z,52.35
2019-04-01T00:13:23.011Z,52.21
2019-04-01T00:15:53.537Z,52.23
2019-04-01T00:18:24.078Z,52.51
2019-04-01T00:20:54.533Z,53.28
2019-04-01T00:23:25.036Z,52.84
2019-04-01T00:25:55.518Z,52.85
2019-04-01T00:28:26.019Z,52.94
2019-04-01T00:30:56.472Z,53.25
2019-04-01T00:33:26.965Z,53.02
2019-04-01T00:35:57.508Z,53.31
2019-04-01T00:38:27.950Z,53.10
2019-04-01T00:40:58.393Z,53.23
2019-04-01T00:43:56.657Z,53.54
2019-04-01T00:46:27.261Z,53.52
2019-04-01T00:48:57.761Z,53.52
2019-04-01T00:51:28.221Z,53.75
2019-04-01T00:53:58.716Z,53.75
2019-04-01T00:56:29.171Z,53.66
2019-04-01T00:58:59.630Z,53.77
2019-04-01T01:01:30.125Z,54.24
2019-04-01T01:04:00.585Z,54.04
2019-04-01T01:06:31.105Z,55.20
2019-04-01T01:09:01.638Z,54.70
2019-04-01T01:11:32.091Z,55.95
2019-04-01T01:14:02.562Z,56.09
2019-04-01T01:16:33.026Z,55.53
2019-04-01T01:19:03.489Z,55.53
2019-04-01T01:21:34.880Z,55.55
2019-04-01T01:24:05.695Z,55.49
2019-04-01T01:26:36.224Z,55.51
2019-04-01T01:29:06.677Z,55.40
2019-04-01T01:31:37.123Z,55.31
2019-04-01T01:34:07.629Z,56.25
2019-04-01T01:36:38.118Z,55.65
2019-04-01T01:39:08.572Z,55.40
2019-04-01T01:41:39.051Z,55.37
2019-04-01T01:44:09.558Z,56.43
2019-04-01T01:46:40.023Z,57.07
2019-04-01T01:49:10.490Z,56.67
2019-04-01T01:51:40.952Z,56.82
2019-04-01T01:54:11.444Z,56.38
2019-04-01T01:56:43.189Z,56.62
2019-04-01T01:59:13.684Z,56.74
2019-04-01T02:01:44.146Z,57.34
2019-04-01T02:04:14.732Z,57.50
2019-04-01T02:06:45.195Z,57.69
2019-04-01T02:09:15.692Z,57.55
2019-04-01T02:11:46.190Z,57.35
2019-04-01T02:14:16.640Z,57.32
2019-04-01T02:16:47.136Z,57.16
2019-04-01T02:19:17.636Z,57.08
2019-04-01T02:21:48.135Z,57.57
2019-04-01T02:24:18.587Z,57.16
2019-04-01T02:26:49.032Z,57.22
2019-04-01T02:29:19.525Z,57.26
2019-04-01T02:31:50.031Z,57.33
2019-04-01T02:34:20.476Z,57.48
2019-04-01T02:36:50.935Z,57.24
2019-04-01T02:39:21.420Z,57.03
2019-04-01T02:41:51.874Z,57.68
2019-04-01T02:44:22.374Z,58.02
2019-04-01T02:46:52.894Z,57.72
2019-04-01T02:49:23.374Z,57.53
2019-04-01T02:51:53.937Z,57.63
2019-04-01T02:54:24.463Z,57.70
2019-04-01T02:56:54.921Z,57.66
2019-04-01T02:59:25.389Z,57.61
2019-04-01T03:01:55.912Z,57.12
2019-04-01T03:04:26.410Z,57.09
2019-04-01T03:06:56.873Z,56.99
2019-04-01T03:09:27.397Z,56.86
2019-04-01T03:11:57.854Z,56.68
2019-04-01T03:14:28.355Z,56.56
2019-04-01T03:16:58.823Z,56.59
2019-04-01T03:19:29.317Z,56.60
2019-04-01T03:21:59.767Z,56.63
2019-04-01T03:24:30.338Z,55.56
2019-04-01T03:27:00.797Z,55.15
2019-04-01T03:29:31.261Z,54.85
2019-04-01T03:32:01.837Z,55.06
2019-04-01T03:34:32.318Z,55.19
2019-04-01T03:37:02.781Z,55.31
2019-04-01T03:39:33.281Z,55.56
2019-04-01T03:42:03.758Z,55.82
2019-04-01T03:44:34.245Z,56.01
2019-04-01T03:47:04.708Z,56.14
2019-04-01T03:49:35.197Z,56.29
2019-04-01T03:52:10.015Z,56.41
2019-04-01T03:54:37.830Z,56.47
2019-04-01T03:57:08.278Z,56.45
2019-04-01T03:59:38.851Z,56.91
2019-04-01T04:02:09.318Z,56.94
2019-04-01T04:04:39.912Z,56.92
2019-04-01T04:07:10.395Z,56.95
2019-04-01T04:09:40.886Z,57.05
2019-04-01T04:12:11.370Z,57.09
2019-04-01T04:14:41.819Z,57.18
2019-04-01T04:17:12.310Z,57.23
2019-04-01T04:19:42.814Z,57.33
2019-04-01T04:22:13.401Z,57.39
2019-04-01T04:24:43.933Z,57.50
2019-04-01T04:27:14.483Z,57.55
2019-04-01T04:29:44.940Z,57.46
2019-04-01T04:32:15.444Z,57.80
2019-04-01T04:34:45.942Z,57.85
2019-04-01T04:37:16.475Z,57.88
2019-04-01T04:39:46.966Z,57.87
2019-04-01T04:42:17.483Z,57.89
2019-04-01T04:44:48.012Z,57.83
2019-04-01T04:47:18.474Z,57.71
2019-04-01T04:49:49.017Z,57.47
2019-04-01T04:52:19.573Z,57.26
2019-04-01T04:54:50.072Z,56.78
2019-04-01T04:57:20.653Z,56.19
2019-04-01T04:59:51.190Z,55.87
2019-04-01T05:02:24.455Z,54.92
2019-04-01T05:04:53.978Z,55.06
2019-04-01T05:07:24.475Z,54.62
2019-04-01T05:09:55.168Z,54.10
2019-04-01T05:12:25.678Z,53.71
2019-04-01T05:14:57.323Z,53.29
2019-04-01T05:17:27.890Z,52.47
2019-04-01T05:20:00.343Z,52.31
2019-04-01T05:22:31.504Z,52.04
2019-04-01T05:25:02.981Z,51.65
2019-04-01T05:27:35.709Z,51.41
2019-04-01T05:30:06.804Z,50.55
2019-04-01T05:32:38.473Z,49.78
2019-04-01T05:35:09.252Z,49.32
2019-04-01T05:37:40.106Z,48.66
2019-04-01T05:40:12.505Z,48.21
2019-04-01T05:42:43.119Z,47.84
2019-04-01T05:45:13.894Z,47.41
2019-04-01T05:47:47.622Z,47.07
2019-04-01T05:50:18.309Z,46.94
2019-04-01T05:52:49.218Z,46.57
2019-04-01T05:55:19.745Z,45.80
2019-04-01T05:57:50.749Z,45.25
2019-04-01T06:00:27.054Z,44.99
2019-04-01T06:02:57.934Z,43.99
2019-04-01T06:05:28.414Z,43.13
2019-04-01T06:07:59.434Z,42.91
2019-04-01T06:10:29.997Z,42.76
2019-04-01T06:13:00.812Z,41.98
2019-04-01T06:15:31.540Z,41.99
2019-04-01T06:18:02.227Z,42.08
2019-04-01T06:20:32.838Z,41.68
2019-04-01T06:23:03.514Z,40.82
2019-04-01T06:25:34.405Z,40.78
2019-04-01T06:28:05.009Z,40.07
2019-04-01T06:30:35.722Z,40.41
2019-04-01T06:33:06.658Z,39.48
2019-04-01T06:35:37.314Z,39.35
2019-04-01T06:38:07.773Z,39.01
2019-04-01T06:40:38.303Z,38.68
2019-04-01T06:43:08.981Z,38.11
2019-04-01T06:45:39.702Z,37.98
2019-04-01T06:48:10.180Z,37.68
2019-04-01T06:50:41.086Z,37.26
2019-04-01T06:53:11.775Z,37.25
2019-04-01T06:55:42.242Z,37.12
2019-04-01T06:58:12.863Z,36.46
2019-04-01T07:00:43.449Z,36.17
2019-04-01T07:03:14.209Z,36.39
2019-04-01T07:05:44.755Z,36.01
2019-04-01T07:08:15.458Z,35.69
2019-04-01T07:10:46.042Z,35.80
2019-04-01T07:13:16.662Z,35.81
2019-04-01T07:15:47.142Z,35.46
2019-04-01T07:18:17.720Z,35.50
2019-04-01T07:20:48.579Z,34.99
2019-04-01T07:23:19.393Z,35.46
2019-04-01T07:25:50.155Z,35.04
2019-04-01T07:28:20.817Z,34.98
2019-04-01T07:30:51.597Z,34.74
2019-04-01T07:33:22.188Z,34.98
2019-04-01T07:35:52.738Z,34.72
2019-04-01T07:40:52.479Z,34.40
2019-04-01T07:43:23.508Z,34.18
2019-04-01T07:45:54.089Z,34.31
2019-04-01T07:48:24.702Z,34.68
2019-04-01T07:50:55.301Z,35.02
2019-04-01T07:53:25.893Z,34.73
2019-04-01T07:55:56.743Z,34.03
2019-04-01T07:58:27.233Z,34.67
2019-04-01T08:00:57.826Z,34.05
2019-04-01T08:03:28.980Z,33.92
2019-04-01T08:05:59.425Z,33.88
2019-04-01T08:08:30.125Z,33.45
2019-04-01T08:11:00.797Z,33.14
2019-04-01T08:13:31.815Z,33.04
2019-04-01T08:16:02.527Z,32.98
2019-04-01T08:18:34.119Z,33.13
2019-04-01T08:21:04.913Z,32.94
2019-04-01T08:23:35.566Z,32.57
2019-04-01T08:26:06.320Z,32.07
2019-04-01T08:28:37.462Z,31.89
2019-04-01T08:31:07.966Z,31.54
2019-04-01T08:33:38.594Z,31.87
2019-04-01T08:36:09.237Z,31.80
2019-04-01T08:38:39.862Z,31.39
2019-04-01T08:41:10.705Z,30.91
2019-04-01T08:43:41.491Z,30.58
2019-04-01T08:46:14.682Z,30.69
2019-04-01T08:48:45.149Z,30.42
2019-04-01T08:51:15.817Z,29.15
2019-04-01T08:53:46.526Z,28.27
2019-04-01T08:56:17.008Z,28.98
2019-04-01T08:58:48.162Z,29.15
2019-04-01T09:01:19.092Z,28.67
2019-04-01T09:03:49.655Z,27.92
2019-04-01T09:06:20.167Z,27.80
2019-04-01T09:08:52.374Z,28.30
2019-04-01T09:11:22.981Z,27.53
2019-04-01T09:13:55.141Z,26.84
2019-04-01T09:16:26.248Z,25.72
2019-04-01T09:18:56.721Z,25.83
2019-04-01T09:21:27.287Z,24.89
2019-04-01T09:23:57.778Z,24.69
2019-04-01T09:26:28.292Z,24.64
2019-04-01T09:28:58.846Z,24.81
2019-04-01T09:31:29.392Z,24.97
2019-04-01T09:34:00.055Z,24.64
2019-04-01T09:36:30.525Z,25.07
2019-04-01T09:39:01.133Z,24.50
2019-04-01T09:41:31.594Z,23.27
2019-04-01T09:44:02.183Z,23.21
2019-04-01T09:46:32.648Z,23.10
2019-04-01T09:49:03.121Z,22.53
2019-04-01T09:51:47.558Z,21.69
2019-04-01T09:54:05.896Z,21.27
2019-04-01T09:56:36.400Z,21.22
2019-04-01T09:59:07.059Z,20.40
2019-04-01T10:01:37.518Z,20.41
2019-04-01T10:04:08.129Z,19.83
2019-04-01T10:06:38.749Z,19.57
2019-04-01T10:09:10.223Z,18.34
2019-04-01T10:11:40.843Z,19.53
2019-04-01T10:14:11.287Z,20.43
2019-04-01T10:16:41.808Z,20.87
2019-04-01T10:19:12.471Z,20.60
2019-04-01T10:21:45.306Z,20.17
2019-04-01T10:24:15.141Z,20.04
2019-04-01T10:26:45.606Z,20.62
2019-04-01T10:29:16.276Z,19.71
2019-04-01T10:31:46.907Z,19.98
2019-04-01T10:34:17.435Z,20.04
2019-04-01T10:36:47.988Z,19.58
2019-04-01T10:39:18.606Z,19.53
2019-04-01T10:41:49.167Z,19.84
2019-04-01T10:44:19.800Z,19.73
2019-04-01T10:46:50.298Z,19.91
2019-04-01T10:49:21.322Z,19.92
2019-04-01T10:51:51.871Z,20.06
2019-04-01T10:54:22.510Z,20.34
2019-04-01T10:56:53.006Z,20.41
2019-04-01T10:59:23.677Z,20.51
2019-04-01T11:01:54.202Z,20.30
2019-04-01T11:04:24.804Z,20.43
2019-04-01T11:06:55.323Z,20.23
2019-04-01T11:09:37.673Z,21.08
2019-04-01T11:11:58.310Z,20.61
2019-04-01T11:14:28.861Z,20.71
2019-04-01T11:16:59.366Z,20.77
2019-04-01T11:19:29.852Z,20.78
2019-04-01T11:22:03.801Z,20.86
2019-04-01T11:24:34.405Z,20.96
2019-04-01T11:27:04.958Z,21.07
2019-04-01T11:29:35.456Z,20.25
2019-04-01T11:32:07.589Z,20.64
2019-04-01T11:34:38.243Z,20.59
2019-04-01T11:37:08.722Z,20.68
2019-04-01T11:39:39.452Z,20.69
2019-04-01T11:42:10.076Z,20.93
2019-04-01T11:44:40.603Z,21.03
2019-04-01T11:47:11.210Z,21.05
2019-04-01T11:49:41.876Z,20.95
2019-04-01T11:52:15.408Z,20.90
2019-04-01T11:54:44.648Z,21.93
2019-04-01T11:57:15.221Z,21.60
2019-04-01T11:59:45.736Z,21.04
2019-04-01T12:02:16.636Z,21.54
2019-04-01T12:04:47.378Z,21.20
2019-04-01T12:07:17.849Z,21.37
2019-04-01T12:09:52.002Z,21.24
2019-04-01T12:12:23.785Z,21.00
2019-04-01T12:14:52.831Z,21.28
2019-04-01T12:17:23.332Z,20.88
2019-04-01T12:19:53.786Z,21.07
2019-04-01T12:22:24.378Z,21.20
2019-04-01T12:24:55.485Z,21.59
2019-04-01T12:27:25.958Z,21.82
2019-04-01T12:29:56.651Z,21.51
2019-04-01T12:32:27.114Z,21.62
2019-04-01T12:34:57.696Z,21.11
2019-04-01T12:37:30.065Z,21.17
2019-04-01T12:40:00.498Z,21.16
2019-04-01T12:42:31.167Z,21.13
2019-04-01T12:45:01.632Z,21.21
2019-04-01T12:47:32.336Z,21.09
2019-04-01T12:50:02.899Z,20.99
2019-04-01T12:52:33.542Z,20.71
2019-04-01T12:55:04.053Z,20.87
2019-04-01T12:57:34.546Z,20.92
2019-04-01T13:00:06.129Z,20.88
2019-04-01T13:02:36.632Z,20.98
2019-04-01T13:05:07.540Z,20.96
2019-04-01T13:07:38.438Z,21.09
2019-04-01T13:10:09.944Z,21.42
2019-04-01T13:12:40.429Z,21.28
2019-04-01T13:15:12.562Z,21.33
2019-04-01T13:17:44.630Z,21.16
2019-04-01T13:20:15.341Z,21.32
2019-04-01T13:22:45.809Z,21.10
2019-04-01T13:25:16.427Z,20.56
2019-04-01T13:27:46.887Z,20.67
2019-04-01T13:30:17.600Z,21.02
2019-04-01T13:32:48.821Z,21.04
2019-04-01T13:35:19.335Z,21.14
2019-04-01T13:37:49.794Z,21.25
2019-04-01T13:40:20.286Z,21.17
2019-04-01T13:42:50.816Z,21.18
2019-04-01T13:45:21.778Z,21.27
2019-04-01T13:47:52.273Z,20.84
2019-04-01T13:50:22.748Z,20.94
2019-04-01T13:52:53.353Z,21.04
2019-04-01T13:55:23.836Z,20.84
2019-04-01T13:57:54.339Z,21.18
2019-04-01T14:00:27.403Z,20.45
2019-04-01T14:02:57.006Z,20.58
2019-04-01T14:05:27.542Z,20.79
2019-04-01T14:07:58.076Z,20.60
2019-04-01T14:10:28.598Z,20.68
2019-04-01T14:12:59.115Z,20.58
2019-04-01T14:15:29.704Z,20.76
2019-04-01T14:18:00.205Z,20.59
2019-04-01T14:20:30.683Z,20.75
2019-04-01T14:23:01.205Z,20.86
2019-04-01T14:25:34.673Z,20.68
2019-04-01T14:28:04.052Z,20.89
2019-04-01T14:30:36.155Z,20.80
2019-04-01T14:33:07.960Z,20.92
2019-04-01T14:35:38.465Z,20.88
2019-04-01T14:38:08.916Z,20.80
2019-04-01T14:40:39.424Z,20.86
2019-04-01T14:43:10.328Z,20.96
2019-04-01T14:45:40.765Z,21.18
2019-04-01T14:48:11.348Z,21.14
2019-04-01T14:50:41.933Z,21.09
2019-04-01T14:53:12.859Z,21.32
2019-04-01T14:55:43.366Z,21.27
2019-04-01T14:58:13.811Z,21.29
2019-04-01T15:00:44.268Z,20.96
2019-04-01T15:03:14.761Z,20.88
2019-04-01T15:05:45.299Z,20.75
2019-04-01T15:08:19.316Z,20.92
2019-04-01T15:10:48.229Z,21.03
2019-04-01T15:13:18.792Z,21.10
2019-04-01T15:15:49.390Z,20.29
2019-04-01T15:18:19.865Z,20.39
2019-04-01T15:20:50.571Z,20.15
2019-04-01T15:23:21.020Z,20.83
2019-04-01T15:25:54.222Z,20.47
2019-04-01T15:28:23.657Z,21.18
2019-04-01T15:30:54.143Z,20.94
2019-04-01T15:33:24.589Z,21.13
2019-04-01T15:35:55.067Z,21.64
2019-04-01T15:38:25.519Z,21.94
2019-04-01T15:40:58.181Z,22.38
2019-04-01T15:43:28.277Z,22.46
2019-04-01T15:45:58.731Z,22.33
2019-04-01T15:48:29.259Z,22.52
2019-04-01T15:51:01.749Z,22.71
2019-04-01T15:53:32.175Z,22.98
2019-04-01T15:56:02.611Z,23.24
2019-04-01T15:58:33.002Z,22.89
2019-04-01T16:01:03.588Z,23.06
2019-04-01T16:03:34.015Z,23.38
2019-04-01T16:06:07.458Z,23.63
2019-04-01T16:08:36.795Z,24.16
2019-04-01T16:11:07.303Z,24.67
2019-04-01T16:13:37.700Z,25.01
2019-04-01T16:16:08.330Z,25.09
2019-04-01T16:18:38.815Z,25.33
2019-04-01T16:21:09.213Z,25.62
2019-04-01T16:23:39.710Z,25.88
2019-04-01T16:26:10.159Z,26.12
2019-04-01T16:28:40.543Z,26.45
2019-04-01T16:31:11.087Z,26.70
2019-04-01T16:33:41.507Z,26.67
2019-04-01T16:36:11.952Z,26.95
2019-04-01T16:38:42.447Z,26.96
2019-04-01T16:41:12.896Z,27.09
2019-04-01T16:43:43.394Z,27.24
2019-04-01T16:46:13.846Z,27.45
2019-04-01T16:48:46.446Z,27.48
2019-04-01T16:51:16.424Z,27.74
2019-04-01T16:53:46.909Z,27.73
2019-04-01T16:56:17.312Z,27.92
2019-04-01T16:58:47.801Z,28.04
2019-04-01T17:01:18.315Z,28.29
2019-04-01T17:03:48.929Z,28.57
2019-04-01T17:06:21.728Z,28.76
2019-04-01T17:08:52.258Z,28.82
2019-04-01T17:11:22.828Z,28.89
2019-04-01T17:13:53.373Z,28.92
2019-04-01T17:16:23.773Z,29.03
2019-04-01T17:18:57.518Z,29.52
2019-04-01T17:21:26.418Z,29.74
2019-04-01T17:23:56.890Z,29.77
2019-04-01T17:26:27.360Z,29.88
2019-04-01T17:28:57.796Z,30.16
2019-04-01T17:31:28.187Z,30.13
2019-04-01T17:33:58.622Z,30.35
2019-04-01T17:36:29.082Z,30.33
2019-04-01T17:38:59.510Z,30.78
2019-04-01T17:41:30.059Z,30.80
2019-04-01T17:44:00.832Z,30.95
2019-04-01T17:46:31.613Z,30.95
2019-04-01T17:49:02.103Z,31.15
2019-04-01T17:51:32.622Z,31.22
2019-04-01T17:54:03.100Z,31.45
2019-04-01T17:56:33.567Z,31.67
2019-04-01T17:59:04.273Z,31.84
2019-04-01T18:01:35.771Z,31.82
2019-04-01T18:04:06.328Z,32.40
2019-04-01T18:06:36.820Z,32.42
2019-04-01T18:09:08.605Z,32.59
2019-04-01T18:11:39.034Z,32.90
2019-04-01T18:14:09.490Z,32.67
2019-04-01T18:16:43.069Z,32.91
2019-04-01T18:19:16.160Z,32.76
2019-04-01T18:21:46.670Z,32.74
2019-04-01T18:24:17.127Z,32.85
2019-04-01T18:26:48.015Z,32.86
2019-04-01T18:29:18.851Z,32.94
2019-04-01T18:31:49.323Z,33.06
2019-04-01T18:34:19.843Z,33.01
2019-04-01T18:36:52.202Z,33.27
2019-04-01T18:39:22.971Z,33.08
2019-04-01T18:41:53.412Z,33.24
2019-04-01T18:44:26.319Z,33.18
2019-04-01T18:46:57.150Z,33.39
2019-04-01T18:49:27.554Z,33.43
2019-04-01T18:52:00.059Z,33.39
2019-04-01T18:54:30.622Z,33.46
2019-04-01T18:57:03.625Z,33.58
2019-04-01T18:59:33.182Z,33.73
2019-04-01T19:02:04.651Z,33.83
2019-04-01T19:04:35.097Z,34.14
2019-04-01T19:07:08.543Z,33.90
2019-04-01T19:09:39.070Z,34.21
2019-04-01T19:12:10.367Z,34.23
2019-04-01T19:14:41.283Z,34.37
2019-04-01T19:17:11.777Z,34.53
2019-04-01T19:19:42.727Z,34.62
2019-04-01T19:22:13.389Z,34.97
2019-04-01T19:24:43.838Z,34.96
2019-04-01T19:27:14.245Z,34.77
2019-04-01T19:29:45.521Z,35.08
2019-04-01T19:32:16.507Z,34.89
2019-04-01T19:34:47.033Z,35.01
2019-04-01T19:37:18.292Z,35.13
2019-04-01T19:39:50.173Z,35.46
2019-04-01T19:42:22.022Z,35.38
2019-04-01T19:44:52.437Z,35.52
2019-04-01T19:47:23.141Z,35.88
2019-04-01T19:49:54.236Z,35.79
2019-04-01T19:52:26.132Z,35.88
2019-04-01T19:54:56.763Z,35.95
2019-04-01T19:57:28.043Z,36.43
2019-04-01T19:59:58.806Z,36.90
2019-04-01T20:02:30.582Z,36.66
2019-04-01T20:05:00.987Z,36.78
2019-04-01T20:07:31.434Z,36.85
2019-04-01T20:10:04.630Z,36.93
2019-04-01T20:12:34.023Z,37.02
2019-04-01T20:15:05.059Z,37.42
2019-04-01T20:17:35.526Z,37.26
2019-04-01T20:20:06.716Z,37.36
2019-04-01T20:22:37.122Z,37.50
2019-04-01T20:25:08.352Z,37.72
2019-04-01T20:27:38.793Z,37.74
2019-04-01T20:30:09.962Z,38.29
2019-04-01T20:32:40.415Z,38.47
2019-04-01T20:35:22.581Z,38.31
2019-04-01T20:37:43.585Z,38.43
2019-04-01T20:40:14.877Z,38.50
2019-04-01T20:42:46.338Z,38.50
2019-04-01T20:45:17.673Z,38.69
2019-04-01T20:47:50.322Z,38.75
2019-04-01T20:50:20.533Z,39.10
2019-04-01T20:52:51.015Z,39.34
2019-04-01T20:55:21.619Z,39.38
2019-04-01T20:57:52.105Z,39.57
2019-04-01T21:00:22.708Z,39.81
2019-04-01T21:02:53.151Z,39.92
2019-04-01T21:05:24.224Z,40.02
2019-04-01T21:07:54.867Z,40.27
2019-04-01T21:10:25.275Z,40.33
2019-04-01T21:12:55.672Z,40.79
2019-04-01T21:15:26.105Z,40.86
2019-04-01T21:17:56.498Z,40.70
2019-04-01T21:20:26.898Z,41.15
2019-04-01T21:22:57.327Z,41.22
2019-04-01T21:25:27.725Z,41.25
2019-04-01T21:27:58.160Z,41.35
2019-04-01T21:30:28.661Z,41.40
2019-04-01T21:32:59.107Z,41.53
2019-04-01T21:35:29.510Z,41.73
2019-04-01T21:37:59.958Z,41.66
2019-04-01T21:40:30.362Z,41.85
2019-04-01T21:43:03.136Z,41.79
2019-04-01T21:45:32.884Z,41.91
2019-04-01T21:48:03.273Z,42.04
2019-04-01T21:50:34.995Z,42.28
2019-04-01T21:53:05.626Z,42.44
2019-04-01T21:55:36.023Z,42.55
2019-04-01T21:58:06.501Z,42.54
2019-04-01T22:00:56.788Z,42.73
2019-04-01T22:03:27.329Z,42.83
2019-04-01T22:05:57.767Z,43.00
2019-04-01T22:08:28.200Z,42.88
2019-04-01T22:10:58.653Z,43.30
2019-04-01T22:13:29.058Z,43.37
2019-04-01T22:15:59.553Z,43.33
2019-04-01T22:18:32.761Z,43.32
2019-04-01T22:21:02.089Z,43.33
2019-04-01T22:23:32.493Z,43.65
2019-04-01T22:26:03.073Z,43.60
2019-04-01T22:28:33.535Z,43.54
2019-04-01T22:31:04.029Z,43.58
2019-04-01T22:33:34.534Z,43.73
2019-04-01T22:36:04.983Z,43.80
2019-04-01T22:38:35.618Z,43.80
2019-04-01T22:41:06.143Z,43.99
2019-04-01T22:43:36.585Z,44.03
2019-04-01T22:46:06.985Z,45.17
2019-04-01T22:48:37.424Z,45.01
2019-04-01T22:51:08.681Z,44.95
2019-04-01T22:53:39.441Z,45.05
2019-04-01T22:56:09.887Z,45.22
2019-04-01T22:58:40.291Z,45.35
2019-04-01T23:01:10.701Z,45.76
2019-04-01T23:03:41.105Z,45.75
2019-04-01T23:06:11.575Z,45.36
2019-04-01T23:08:41.966Z,45.35
2019-04-01T23:11:12.365Z,45.19
2019-04-01T23:13:42.809Z,45.13
2019-04-01T23:16:13.476Z,44.96
2019-04-01T23:18:43.925Z,45.10
2019-04-01T23:21:14.356Z,45.09
2019-04-01T23:23:44.793Z,45.17
2019-04-01T23:26:15.237Z,45.16
2019-04-01T23:28:45.637Z,45.27
2019-04-01T23:31:16.196Z,45.32
2019-04-01T23:33:47.594Z,45.69
2019-04-01T23:36:18.033Z,45.60
2019-04-01T23:38:48.446Z,45.73
2019-04-01T23:41:18.852Z,45.87
2019-04-01T23:43:49.257Z,46.13
2019-04-01T23:46:19.694Z,46.09
2019-04-01T23:48:50.129Z,45.95
2019-04-01T23:51:20.612Z,46.29
2019-04-01T23:53:51.064Z,46.23
2019-04-01T23:56:21.506Z,46.57
2019-04-01T23:58:51.940Z,46.57
